Time;durP1;ratioP1;P1;durP2;ratioP2;P2;SDS_P1;SDS_P2;PMS_P1;PMS_P2;Temp;Humidity;BMP_temperature;BMP_pressure;BME280_temperature;BME280_humidity;BME280_pressure;Samples;Min_cycle;Max_cycle;Signal;HPM_P1;HPM_P2
2023/08/01 00:01:54;;;;;;;3.90;3.60;;;;;;;;;;5093339;28;20447;-72
2023/08/01 00:04:21;;;;;;;5.30;3.30;;;;;;;;;;5093198;28;20545;-71
2023/08/01 00:06:48;;;;;;;7.20;3.10;;;;;;;;;;5093186;28;20983;-71
2023/08/01 00:09:15;;;;;;;5.53;2.80;;;;;;;;;;5093337;28;20474;-71
2023/08/01 00:11:42;;;;;;;4.83;3.17;;;;;;;;;;5093318;28;20534;-71
2023/08/01 00:14:09;;;;;;;4.30;3.40;;;;;;;;;;5093213;28;20882;-72
2023/08/01 00:16:36;;;;;;;3.80;3.33;;;;;;;;;;5093071;28;20498;-71
2023/08/01 00:19:04;;;;;;;4.53;3.17;;;;;;;;;;5092919;28;20446;-72
2023/08/01 00:21:31;;;;;;;3.63;2.60;;;;;;;;;;5093199;28;20443;-71
2023/08/01 00:23:58;;;;;;;4.23;2.90;;;;;;;;;;5093170;28;20443;-71
2023/08/01 00:26:25;;;;;;;4.90;2.93;;;;;;;;;;5093116;28;20453;-71
2023/08/01 00:28:52;;;;;;;2.67;2.47;;;;;;;;;;5092945;28;20446;-71
2023/08/01 00:31:19;;;;;;;4.87;2.80;;;;;;;;;;5092980;28;20442;-72
2023/08/01 00:33:46;;;;;;;3.03;2.70;;;;;;;;;;5092900;28;20546;-72
2023/08/01 00:36:14;;;;;;;3.30;2.57;;;;;;;;;;5093042;28;20548;-71
2023/08/01 00:38:43;;;;;;;3.90;3.00;;;;;;;;;;5093025;28;20453;-71
2023/08/01 00:41:09;;;;;;;6.83;2.90;;;;;;;;;;5092926;28;20443;-71
2023/08/01 00:43:36;;;;;;;4.40;2.90;;;;;;;;;;5092833;28;20441;-71
2023/08/01 00:46:05;;;;;;;2.80;2.60;;;;;;;;;;5092785;28;20546;-72
2023/08/01 00:48:32;;;;;;;3.70;2.97;;;;;;;;;;5092966;28;20533;-71
2023/08/01 00:50:59;;;;;;;3.33;3.07;;;;;;;;;;5092926;28;20452;-71
2023/08/01 00:53:27;;;;;;;4.33;3.30;;;;;;;;;;5093131;28;20786;-71
2023/08/01 00:55:55;;;;;;;3.60;2.70;;;;;;;;;;5092594;28;21031;-72
2023/08/01 00:58:22;;;;;;;2.60;2.40;;;;;;;;;;5092524;28;21151;-71
2023/08/01 01:00:49;;;;;;;4.47;2.93;;;;;;;;;;5092692;28;20445;-72
2023/08/01 01:03:16;;;;;;;3.30;3.00;;;;;;;;;;5092954;28;20540;-71
2023/08/01 01:05:45;;;;;;;2.97;2.70;;;;;;;;;;5092638;28;20936;-72
2023/08/01 01:08:12;;;;;;;5.30;3.27;;;;;;;;;;5095333;28;20453;-72
2023/08/01 01:10:40;;;;;;;3.17;2.70;;;;;;;;;;5096504;28;20446;-72
2023/08/01 01:13:07;;;;;;;2.83;2.57;;;;;;;;;;5096392;28;20449;-72
2023/08/01 01:15:34;;;;;;;3.37;3.17;;;;;;;;;;5096679;28;21132;-72
2023/08/01 01:18:01;;;;;;;3.10;2.80;;;;;;;;;;5096431;28;20583;-72
2023/08/01 01:20:33;;;;;;;2.83;2.63;;;;;;;;;;5096473;28;20452;-72
2023/08/01 01:23:00;;;;;;;4.10;3.20;;;;;;;;;;5096380;28;20449;-72
2023/08/01 01:25:28;;;;;;;2.97;2.73;;;;;;;;;;5096271;28;20539;-72
2023/08/01 01:27:55;;;;;;;6.40;3.17;;;;;;;;;;5096126;28;20539;-72
2023/08/01 01:30:23;;;;;;;3.10;2.80;;;;;;;;;;5096299;28;20882;-72
2023/08/01 01:32:50;;;;;;;3.60;2.80;;;;;;;;;;5096244;28;20813;-72
2023/08/01 01:35:17;;;;;;;3.07;2.87;;;;;;;;;;5096035;28;20446;-72
2023/08/01 01:37:45;;;;;;;3.80;2.57;;;;;;;;;;5095974;28;20492;-72
2023/08/01 01:40:13;;;;;;;3.93;3.23;;;;;;;;;;5095867;28;20540;-71
2023/08/01 01:42:39;;;;;;;3.10;2.80;;;;;;;;;;5096114;28;20541;-72
2023/08/01 01:45:07;;;;;;;6.47;3.00;;;;;;;;;;5095995;28;20878;-72
2023/08/01 01:47:34;;;;;;;3.80;3.20;;;;;;;;;;5096202;28;20542;-72
2023/08/01 01:50:01;;;;;;;3.60;3.30;;;;;;;;;;5095744;28;21032;-72
2023/08/01 01:52:28;;;;;;;3.27;3.07;;;;;;;;;;5095668;28;20450;-72
2023/08/01 01:54:56;;;;;;;3.73;3.43;;;;;;;;;;5095468;28;20446;-71
2023/08/01 01:57:23;;;;;;;4.40;4.00;;;;;;;;;;5095733;28;20477;-71
2023/08/01 01:59:50;;;;;;;4.13;3.80;;;;;;;;;;5095702;28;20446;-72
2023/08/01 02:02:16;;;;;;;4.13;3.63;;;;;;;;;;5095628;28;20445;-72
2023/08/01 02:04:43;;;;;;;4.23;3.50;;;;;;;;;;5095513;28;20449;-72
2023/08/01 02:07:10;;;;;;;3.53;3.20;;;;;;;;;;5095427;28;20549;-71
2023/08/01 02:09:37;;;;;;;4.17;3.87;;;;;;;;;;5095268;28;20541;-72
2023/08/01 02:12:08;;;;;;;3.80;3.40;;;;;;;;;;5095528;28;20446;-72
2023/08/01 02:14:35;;;;;;;3.90;3.60;;;;;;;;;;5095355;28;20864;-72
2023/08/01 02:17:02;;;;;;;3.57;3.17;;;;;;;;;;5095241;28;20474;-72
2023/08/01 02:19:29;;;;;;;4.80;3.47;;;;;;;;;;5094369;28;20534;-72
2023/08/01 02:21:56;;;;;;;6.00;4.20;;;;;;;;;;5095554;28;20866;-71
2023/08/01 02:24:23;;;;;;;5.33;3.60;;;;;;;;;;5095262;28;20540;-72
2023/08/01 02:26:50;;;;;;;3.83;3.53;;;;;;;;;;5095150;28;20445;-72
2023/08/01 02:29:18;;;;;;;4.17;3.83;;;;;;;;;;5095058;28;20484;-72
2023/08/01 02:31:45;;;;;;;6.93;3.80;;;;;;;;;;5095036;28;20540;-72
2023/08/01 02:34:12;;;;;;;6.70;3.90;;;;;;;;;;5094902;28;20529;-71
2023/08/01 02:36:40;;;;;;;4.20;3.90;;;;;;;;;;5094802;28;20454;-72
2023/08/01 02:39:07;;;;;;;3.40;3.07;;;;;;;;;;5094806;28;20481;-72
2023/08/01 02:41:34;;;;;;;4.33;3.90;;;;;;;;;;5094916;28;20480;-72
2023/08/01 02:44:01;;;;;;;6.07;4.00;;;;;;;;;;5094842;28;20540;-72
2023/08/01 02:46:29;;;;;;;4.00;3.80;;;;;;;;;;5094709;28;20453;-72
2023/08/01 02:48:56;;;;;;;6.87;4.30;;;;;;;;;;5094577;28;20456;-72
2023/08/01 02:51:23;;;;;;;4.70;3.70;;;;;;;;;;5094703;28;20556;-72
2023/08/01 02:53:50;;;;;;;7.47;4.07;;;;;;;;;;5094660;28;20967;-72
2023/08/01 02:56:17;;;;;;;5.07;4.03;;;;;;;;;;5094254;28;20547;-72
2023/08/01 02:58:44;;;;;;;4.70;4.10;;;;;;;;;;5094679;28;21046;-72
2023/08/01 03:01:13;;;;;;;3.37;3.17;;;;;;;;;;5094365;28;20451;-72
2023/08/01 03:03:41;;;;;;;6.07;4.00;;;;;;;;;;5094171;28;20810;-72
2023/08/01 03:06:08;;;;;;;4.77;3.50;;;;;;;;;;5094432;28;20883;-72
2023/08/01 03:08:35;;;;;;;3.30;3.00;;;;;;;;;;5094330;28;20449;-71
2023/08/01 03:11:02;;;;;;;3.73;3.43;;;;;;;;;;5094583;28;20541;-72
2023/08/01 03:13:29;;;;;;;3.87;3.57;;;;;;;;;;5094217;28;20449;-72
2023/08/01 03:15:56;;;;;;;4.10;3.80;;;;;;;;;;5094048;28;20452;-72
2023/08/01 03:18:23;;;;;;;4.47;2.90;;;;;;;;;;5094130;28;20488;-72
2023/08/01 03:20:52;;;;;;;3.87;3.60;;;;;;;;;;5094154;28;20446;-72
2023/08/01 03:23:19;;;;;;;4.17;2.90;;;;;;;;;;5094065;28;20458;-72
2023/08/01 03:25:46;;;;;;;3.70;3.30;;;;;;;;;;5093977;28;20477;-72
2023/08/01 03:28:13;;;;;;;3.90;3.60;;;;;;;;;;5093897;28;20473;-72
2023/08/01 03:30:40;;;;;;;4.83;3.30;;;;;;;;;;5094241;28;20449;-71
2023/08/01 03:33:07;;;;;;;5.63;3.33;;;;;;;;;;5093812;28;20445;-72
2023/08/01 03:35:34;;;;;;;4.50;3.03;;;;;;;;;;5093870;28;20445;-72
2023/08/01 03:38:03;;;;;;;3.90;3.20;;;;;;;;;;5093642;28;20473;-72
2023/08/01 03:40:30;;;;;;;5.73;3.60;;;;;;;;;;5093697;28;20450;-72
2023/08/01 03:42:56;;;;;;;3.47;3.17;;;;;;;;;;5093611;28;20455;-70
2023/08/01 03:45:23;;;;;;;3.70;3.40;;;;;;;;;;5093474;28;20452;-72
2023/08/01 03:47:50;;;;;;;3.80;3.43;;;;;;;;;;5093646;28;20915;-72
2023/08/01 03:50:17;;;;;;;4.13;3.00;;;;;;;;;;5093628;28;20539;-72
2023/08/01 03:52:45;;;;;;;4.60;3.37;;;;;;;;;;5093568;28;20988;-72
2023/08/01 03:55:13;;;;;;;4.10;2.97;;;;;;;;;;5093303;28;20873;-72
2023/08/01 03:57:40;;;;;;;4.80;3.20;;;;;;;;;;5093272;28;21008;-71
2023/08/01 04:00:13;;;;;;;4.67;3.60;;;;;;;;;;5093244;28;20434;-72
2023/08/01 04:02:40;;;;;;;3.93;3.00;;;;;;;;;;5093477;28;20446;-72
2023/08/01 04:05:08;;;;;;;3.50;3.07;;;;;;;;;;5093355;28;20453;-72
2023/08/01 04:07:35;;;;;;;3.60;3.30;;;;;;;;;;5093166;28;20451;-72
2023/08/01 04:10:02;;;;;;;5.30;2.60;;;;;;;;;;5093169;28;20810;-71
2023/08/01 04:12:31;;;;;;;3.20;2.90;;;;;;;;;;5093353;28;20540;-72
2023/08/01 04:14:58;;;;;;;3.73;2.90;;;;;;;;;;5093300;28;20874;-72
2023/08/01 04:17:25;;;;;;;3.13;2.93;;;;;;;;;;5093146;28;20530;-72
2023/08/01 04:19:52;;;;;;;3.87;2.97;;;;;;;;;;5093143;28;20540;-72
2023/08/01 04:22:19;;;;;;;4.00;3.30;;;;;;;;;;5093096;28;20543;-72
2023/08/01 04:24:46;;;;;;;3.47;2.73;;;;;;;;;;5092892;28;21033;-72
2023/08/01 04:27:13;;;;;;;4.43;4.07;;;;;;;;;;5093172;28;20532;-72
2023/08/01 04:29:41;;;;;;;5.40;2.83;;;;;;;;;;5093131;28;20446;-72
2023/08/01 04:32:10;;;;;;;3.10;2.90;;;;;;;;;;5092877;28;20961;-72
2023/08/01 04:34:37;;;;;;;3.00;2.80;;;;;;;;;;5093042;28;20459;-72
2023/08/01 04:37:04;;;;;;;2.93;2.73;;;;;;;;;;5092930;28;20809;-72
2023/08/01 04:39:31;;;;;;;7.93;2.97;;;;;;;;;;5092951;28;20489;-72
2023/08/01 04:41:58;;;;;;;4.87;2.97;;;;;;;;;;5093661;28;21024;-72
2023/08/01 04:44:25;;;;;;;3.33;2.47;;;;;;;;;;5097088;28;20548;-71
2023/08/01 04:46:53;;;;;;;3.00;2.73;;;;;;;;;;5097011;28;20446;-72
2023/08/01 04:49:20;;;;;;;3.50;2.60;;;;;;;;;;5096822;28;20937;-71
2023/08/01 04:51:49;;;;;;;3.07;2.77;;;;;;;;;;5096760;28;20441;-72
2023/08/01 04:54:16;;;;;;;3.57;3.27;;;;;;;;;;5096962;28;20442;-72
2023/08/01 04:56:43;;;;;;;2.90;2.50;;;;;;;;;;5096603;28;20504;-72
2023/08/01 04:59:10;;;;;;;4.23;2.50;;;;;;;;;;5096752;28;20493;-72
2023/08/01 05:01:37;;;;;;;3.20;2.90;;;;;;;;;;5096599;28;20960;-72
2023/08/01 05:04:05;;;;;;;2.80;2.60;;;;;;;;;;5096676;28;20536;-72
2023/08/01 05:06:32;;;;;;;5.40;2.90;;;;;;;;;;5096567;28;20539;-72
2023/08/01 05:08:59;;;;;;;3.83;2.90;;;;;;;;;;5096754;28;20442;-71
2023/08/01 05:11:26;;;;;;;3.07;2.70;;;;;;;;;;5096675;28;20567;-72
2023/08/01 05:13:53;;;;;;;4.47;3.67;;;;;;;;;;5096498;28;20477;-72
2023/08/01 05:16:20;;;;;;;3.60;3.07;;;;;;;;;;5096430;28;20865;-72
2023/08/01 05:18:46;;;;;;;4.37;3.93;;;;;;;;;;5096193;28;20995;-71
2023/08/01 05:21:15;;;;;;;2.50;2.40;;;;;;;;;;5096821;28;20537;-72
2023/08/01 05:23:42;;;;;;;2.77;2.50;;;;;;;;;;5096380;28;20446;-71
2023/08/01 05:26:09;;;;;;;4.57;3.23;;;;;;;;;;5096348;28;20437;-71
2023/08/01 05:28:35;;;;;;;3.60;2.90;;;;;;;;;;5096111;28;20993;-72
2023/08/01 05:31:02;;;;;;;2.60;2.40;;;;;;;;;;5096112;28;20530;-72
2023/08/01 05:33:29;;;;;;;3.10;2.80;;;;;;;;;;5096009;28;20449;-72
2023/08/01 05:35:56;;;;;;;3.43;3.10;;;;;;;;;;5096283;28;20533;-72
2023/08/01 05:38:25;;;;;;;3.30;3.00;;;;;;;;;;5096284;28;20478;-72
2023/08/01 05:40:51;;;;;;;3.30;3.10;;;;;;;;;;5096038;28;20541;-72
2023/08/01 05:43:18;;;;;;;3.37;3.07;;;;;;;;;;5095951;28;20515;-72
2023/08/01 05:45:45;;;;;;;2.40;2.30;;;;;;;;;;5095777;28;20446;-72
2023/08/01 05:48:13;;;;;;;2.87;2.67;;;;;;;;;;5095717;28;20812;-72
2023/08/01 05:50:40;;;;;;;3.00;2.70;;;;;;;;;;5095884;28;20445;-71
2023/08/01 05:53:07;;;;;;;4.00;2.60;;;;;;;;;;5095148;28;20533;-72
2023/08/01 05:55:36;;;;;;;3.00;2.80;;;;;;;;;;5094953;28;20477;-72
2023/08/01 05:58:03;;;;;;;3.83;2.80;;;;;;;;;;5095625;28;20536;-72
2023/08/01 06:00:30;;;;;;;2.67;2.47;;;;;;;;;;5095493;28;20453;-71
2023/08/01 06:02:58;;;;;;;2.80;2.60;;;;;;;;;;5095636;28;20453;-72
2023/08/01 06:05:25;;;;;;;2.90;2.70;;;;;;;;;;5095596;28;20502;-72
2023/08/01 06:07:52;;;;;;;3.07;2.40;;;;;;;;;;5095581;28;20536;-72
2023/08/01 06:10:18;;;;;;;2.67;2.43;;;;;;;;;;5095408;28;20809;-72
2023/08/01 06:12:47;;;;;;;2.87;2.67;;;;;;;;;;5095355;28;20452;-72
2023/08/01 06:15:14;;;;;;;2.57;2.37;;;;;;;;;;5095272;28;20453;-72
2023/08/01 06:17:41;;;;;;;2.47;2.37;;;;;;;;;;5095281;28;20519;-71
2023/08/01 06:20:08;;;;;;;2.57;2.37;;;;;;;;;;5095207;28;20488;-72
2023/08/01 06:22:35;;;;;;;2.33;2.23;;;;;;;;;;5095263;28;20446;-72
2023/08/01 06:25:02;;;;;;;2.57;2.37;;;;;;;;;;5095076;28;20548;-72
2023/08/01 06:27:29;;;;;;;2.77;2.57;;;;;;;;;;5094956;28;20540;-72
2023/08/01 06:29:57;;;;;;;3.57;2.10;;;;;;;;;;5094880;28;20535;-72
2023/08/01 06:32:24;;;;;;;2.20;2.00;;;;;;;;;;5095041;28;20459;-71
2023/08/01 06:34:51;;;;;;;3.07;2.80;;;;;;;;;;5098042;28;20532;-72
2023/08/01 06:37:18;;;;;;;2.30;2.20;;;;;;;;;;5095595;28;20941;-72
2023/08/01 06:39:45;;;;;;;2.33;2.10;;;;;;;;;;5094725;28;20572;-72
2023/08/01 06:42:12;;;;;;;2.50;2.30;;;;;;;;;;5110425;28;20479;-71
2023/08/01 06:44:39;;;;;;;3.20;2.90;;;;;;;;;;5104473;28;20570;-72
2023/08/01 06:47:07;;;;;;;2.20;2.00;;;;;;;;;;5103857;28;20782;-72
2023/08/01 06:49:34;;;;;;;2.67;2.43;;;;;;;;;;5094318;28;20537;-72
2023/08/01 06:52:01;;;;;;;3.40;2.77;;;;;;;;;;5094089;28;20442;-72
2023/08/01 06:54:28;;;;;;;2.70;2.50;;;;;;;;;;5105300;28;20537;-72
2023/08/01 06:56:55;;;;;;;2.63;2.47;;;;;;;;;;5099645;28;20476;-72
2023/08/01 06:59:22;;;;;;;2.63;2.43;;;;;;;;;;5094477;28;20587;-72
2023/08/01 07:01:49;;;;;;;2.67;2.47;;;;;;;;;;5094511;28;20874;-72
2023/08/01 07:04:17;;;;;;;3.20;2.73;;;;;;;;;;5094256;28;20537;-68
2023/08/01 07:06:44;;;;;;;5.27;2.30;;;;;;;;;;5093866;28;20443;-75
2023/08/01 07:09:11;;;;;;;3.37;2.50;;;;;;;;;;5094118;28;20540;-69
2023/08/01 07:11:38;;;;;;;2.73;2.53;;;;;;;;;;5093896;28;21030;-63
2023/08/01 07:14:05;;;;;;;3.17;2.90;;;;;;;;;;5094158;28;20446;-70
2023/08/01 07:16:32;;;;;;;2.20;2.00;;;;;;;;;;5093954;28;20542;-65
2023/08/01 07:19:01;;;;;;;2.20;1.97;;;;;;;;;;5093703;28;20481;-63
2023/08/01 07:21:29;;;;;;;2.57;2.37;;;;;;;;;;5093875;28;20921;-62
2023/08/01 07:23:57;;;;;;;2.40;2.20;;;;;;;;;;5093754;28;20813;-62
2023/08/01 07:26:24;;;;;;;2.90;2.70;;;;;;;;;;5093931;28;20893;-62
2023/08/01 07:28:51;;;;;;;2.30;2.20;;;;;;;;;;5096340;28;20540;-60
2023/08/01 07:31:18;;;;;;;2.50;2.30;;;;;;;;;;5110495;28;20530;-66
2023/08/01 07:33:45;;;;;;;2.67;2.47;;;;;;;;;;5103764;28;20496;-62
2023/08/01 07:36:12;;;;;;;2.30;2.20;;;;;;;;;;5104020;28;20447;-67
2023/08/01 07:38:40;;;;;;;2.47;2.27;;;;;;;;;;5102128;28;20469;-68
2023/08/01 07:41:08;;;;;;;2.57;2.20;;;;;;;;;;5108147;28;20448;-69
2023/08/01 07:43:35;;;;;;;2.10;2.00;;;;;;;;;;5114075;28;20506;-70
2023/08/01 07:46:02;;;;;;;2.60;2.40;;;;;;;;;;5099939;28;20540;-71
2023/08/01 07:48:28;;;;;;;2.50;2.30;;;;;;;;;;5093461;28;20453;-69
2023/08/01 07:50:55;;;;;;;2.23;2.00;;;;;;;;;;5093193;28;20449;-63
2023/08/01 07:53:22;;;;;;;4.83;2.30;;;;;;;;;;5093555;28;20456;-62
2023/08/01 07:55:51;;;;;;;2.40;2.20;;;;;;;;;;5107117;28;20499;-62
2023/08/01 07:58:18;;;;;;;2.10;2.00;;;;;;;;;;5113589;28;20533;-59
2023/08/01 08:00:45;;;;;;;2.07;1.90;;;;;;;;;;5113297;28;20577;-59
2023/08/01 08:03:12;;;;;;;1.97;1.87;;;;;;;;;;5113111;28;20530;-60
2023/08/01 08:05:39;;;;;;;2.17;2.07;;;;;;;;;;5113300;28;20449;-60
2023/08/01 08:08:06;;;;;;;1.70;1.60;;;;;;;;;;5113601;28;20828;-74
2023/08/01 08:10:33;;;;;;;2.30;2.10;;;;;;;;;;5113587;28;20481;-77
2023/08/01 08:13:01;;;;;;;1.83;1.73;;;;;;;;;;5113420;28;20537;-61
2023/08/01 08:15:33;;;;;;;2.10;1.40;;;;;;;;;;5113283;28;20529;-68
2023/08/01 08:18:00;;;;;;;2.27;2.07;;;;;;;;;;5112334;28;20515;-62
2023/08/01 08:20:27;;;;;;;1.63;1.53;;;;;;;;;;5113151;28;20481;-70
2023/08/01 08:22:54;;;;;;;4.53;1.90;;;;;;;;;;5113245;28;20457;-73
2023/08/01 08:25:21;;;;;;;2.20;2.10;;;;;;;;;;5113255;28;20472;-74
2023/08/01 08:27:48;;;;;;;2.80;1.43;;;;;;;;;;5113419;28;20567;-69
2023/08/01 08:30:16;;;;;;;1.90;1.80;;;;;;;;;;5098818;28;20450;-65
2023/08/01 08:32:43;;;;;;;2.20;2.03;;;;;;;;;;5092783;28;20458;-66
2023/08/01 08:35:11;;;;;;;1.80;1.70;;;;;;;;;;5093784;28;20450;-67
2023/08/01 08:37:38;;;;;;;2.33;1.63;;;;;;;;;;5102305;28;20470;-65
2023/08/01 08:40:05;;;;;;;1.80;1.70;;;;;;;;;;5103601;28;20466;-67
2023/08/01 08:42:34;;;;;;;2.00;1.90;;;;;;;;;;5110943;28;20509;-67
2023/08/01 08:45:02;;;;;;;2.13;2.03;;;;;;;;;;5113016;28;20817;-66
2023/08/01 08:47:32;;;;;;;1.70;1.60;;;;;;;;;;5113367;28;20487;-64
2023/08/01 08:49:59;;;;;;;1.57;1.47;;;;;;;;;;5099487;28;20518;-66
2023/08/01 08:52:27;;;;;;;1.97;1.87;;;;;;;;;;5102016;28;20918;-61
2023/08/01 08:54:54;;;;;;;1.80;1.10;;;;;;;;;;5112848;28;20442;-64
2023/08/01 08:57:21;;;;;;;1.77;1.67;;;;;;;;;;5113189;28;20537;-60
2023/08/01 08:59:49;;;;;;;1.67;1.50;;;;;;;;;;5112854;28;20486;-61
2023/08/01 09:02:16;;;;;;;1.70;1.60;;;;;;;;;;5106318;28;20445;-66
2023/08/01 09:04:45;;;;;;;1.77;1.67;;;;;;;;;;5092447;28;20945;-68
2023/08/01 09:07:12;;;;;;;1.70;1.60;;;;;;;;;;5092641;28;20543;-61
2023/08/01 09:09:39;;;;;;;1.50;1.40;;;;;;;;;;5092400;28;20597;-62
2023/08/01 09:12:07;;;;;;;1.97;1.87;;;;;;;;;;5092472;28;20536;-62
2023/08/01 09:14:35;;;;;;;1.70;1.60;;;;;;;;;;5092463;28;20526;-64
2023/08/01 09:17:07;;;;;;;1.53;1.17;;;;;;;;;;5092413;28;20934;-62
2023/08/01 09:19:34;;;;;;;1.40;1.30;;;;;;;;;;5092613;28;20481;-78
2023/08/01 09:22:02;;;;;;;4.77;1.23;;;;;;;;;;5095008;28;20438;-68
2023/08/01 09:24:30;;;;;;;1.10;1.00;;;;;;;;;;5112678;28;20449;-67
2023/08/01 09:27:04;;;;;;;1.97;1.00;;;;;;;;;;5112558;28;20533;-69
2023/08/01 09:29:31;;;;;;;1.20;1.10;;;;;;;;;;5107849;28;20446;-62
2023/08/01 09:31:58;;;;;;;0.90;0.90;;;;;;;;;;5096062;28;20451;-68
2023/08/01 09:34:26;;;;;;;1.30;1.20;;;;;;;;;;5096041;28;20534;-66
2023/08/01 09:36:53;;;;;;;0.90;0.90;;;;;;;;;;5096132;28;20537;-68
2023/08/01 09:39:22;;;;;;;1.50;1.17;;;;;;;;;;5095864;28;20471;-65
2023/08/01 09:41:56;;;;;;;1.57;1.20;;;;;;;;;;5096045;28;20446;-65
2023/08/01 09:44:23;;;;;;;0.80;0.80;;;;;;;;;;5096029;28;20451;-61
2023/08/01 09:46:57;;;;;;;0.70;0.70;;;;;;;;;;5111110;28;20477;-67
2023/08/01 09:49:24;;;;;;;0.80;0.77;;;;;;;;;;5115951;28;20458;-68
2023/08/01 09:51:51;;;;;;;0.90;0.80;;;;;;;;;;5116057;28;20525;-66
2023/08/01 09:54:19;;;;;;;0.70;0.60;;;;;;;;;;5111279;28;20438;-66
2023/08/01 09:56:48;;;;;;;1.00;0.83;;;;;;;;;;5106056;28;20526;-67
2023/08/01 09:59:19;;;;;;;1.67;0.80;;;;;;;;;;5095042;28;20842;-67
2023/08/01 10:01:46;;;;;;;0.70;0.60;;;;;;;;;;5103230;28;20525;-68
2023/08/01 10:04:14;;;;;;;0.87;0.70;;;;;;;;;;5106577;27;20439;-66
2023/08/01 10:06:42;;;;;;;0.90;0.90;;;;;;;;;;5109318;27;20434;-62
2023/08/01 10:09:11;;;;;;;1.20;1.00;;;;;;;;;;5113742;27;20434;-64
2023/08/01 10:11:39;;;;;;;0.80;0.70;;;;;;;;;;5109261;27;20438;-66
2023/08/01 10:14:08;;;;;;;1.13;0.80;;;;;;;;;;5110418;27;20496;-66
2023/08/01 10:16:36;;;;;;;0.80;0.80;;;;;;;;;;5108328;27;20538;-65
2023/08/01 10:19:03;;;;;;;0.80;0.80;;;;;;;;;;5114973;27;20862;-62
2023/08/01 10:21:30;;;;;;;1.63;0.80;;;;;;;;;;5105083;28;20558;-70
2023/08/01 10:24:00;;;;;;;0.70;0.70;;;;;;;;;;5104797;27;20517;-71
2023/08/01 10:26:27;;;;;;;0.60;0.60;;;;;;;;;;5106401;28;20527;-66
2023/08/01 10:28:54;;;;;;;1.43;0.80;;;;;;;;;;5106813;27;20449;-63
2023/08/01 10:31:22;;;;;;;0.80;0.80;;;;;;;;;;5104156;27;20541;-69
2023/08/01 10:33:50;;;;;;;1.00;0.70;;;;;;;;;;5110054;27;20481;-68
2023/08/01 10:36:18;;;;;;;0.83;0.80;;;;;;;;;;5129236;27;20800;-66
2023/08/01 10:38:49;;;;;;;1.00;0.80;;;;;;;;;;5118549;27;20441;-66
2023/08/01 10:41:27;;;;;;;0.70;0.70;;;;;;;;;;5129325;27;21063;-66
2023/08/01 10:44:05;;;;;;;1.87;1.00;;;;;;;;;;5114861;28;20444;-67
2023/08/01 10:46:47;;;;;;;0.83;0.80;;;;;;;;;;5131132;27;20433;-62
2023/08/01 10:49:15;;;;;;;1.23;0.90;;;;;;;;;;5097666;27;20483;-64
2023/08/01 10:51:43;;;;;;;1.07;0.97;;;;;;;;;;5106065;28;20937;-63
2023/08/01 10:54:19;;;;;;;1.13;0.70;;;;;;;;;;5104417;27;20439;-65
2023/08/01 10:56:47;;;;;;;0.97;0.70;;;;;;;;;;5105615;27;20458;-68
2023/08/01 10:59:14;;;;;;;0.80;0.70;;;;;;;;;;5129997;27;20462;-69
2023/08/01 11:01:45;;;;;;;0.97;0.60;;;;;;;;;;5123277;27;20469;-69
2023/08/01 11:04:16;;;;;;;0.70;0.60;;;;;;;;;;5121655;27;20533;-69
2023/08/01 11:06:46;;;;;;;0.70;0.60;;;;;;;;;;5120299;27;20438;-68
2023/08/01 11:09:17;;;;;;;0.90;0.57;;;;;;;;;;5122444;27;21007;-68
2023/08/01 11:11:44;;;;;;;1.03;0.70;;;;;;;;;;5106693;27;20561;-68
2023/08/01 11:14:13;;;;;;;0.60;0.50;;;;;;;;;;5098588;27;20533;-73
2023/08/01 11:16:40;;;;;;;1.23;1.00;;;;;;;;;;5127951;27;20448;-76
2023/08/01 11:19:07;;;;;;;1.87;0.80;;;;;;;;;;5118162;27;20925;-65
2023/08/01 11:21:36;;;;;;;1.77;0.70;;;;;;;;;;5126525;27;20479;-68
2023/08/01 11:24:07;;;;;;;0.67;0.60;;;;;;;;;;5111506;27;20435;-66
2023/08/01 11:26:34;;;;;;;0.60;0.53;;;;;;;;;;5104761;27;20798;-67
2023/08/01 11:29:03;;;;;;;1.43;0.50;;;;;;;;;;5109120;27;20440;-66
2023/08/01 11:31:30;;;;;;;0.70;0.57;;;;;;;;;;5126857;27;20941;-65
2023/08/01 11:33:58;;;;;;;2.10;0.90;;;;;;;;;;5124912;27;20947;-66
2023/08/01 11:36:26;;;;;;;1.53;0.90;;;;;;;;;;5119300;27;20470;-69
2023/08/01 11:38:55;;;;;;;1.00;0.87;;;;;;;;;;5130799;27;20535;-69
2023/08/01 11:41:23;;;;;;;1.40;0.90;;;;;;;;;;5105308;28;20871;-69
2023/08/01 11:43:50;;;;;;;1.37;0.80;;;;;;;;;;5105353;27;20806;-73
2023/08/01 11:46:17;;;;;;;0.83;0.80;;;;;;;;;;5104554;27;20535;-72
2023/08/01 11:48:46;;;;;;;1.27;1.17;;;;;;;;;;5130396;27;20441;-78
2023/08/01 11:51:13;;;;;;;3.63;0.90;;;;;;;;;;5109969;28;20443;-74
2023/08/01 11:53:40;;;;;;;1.63;1.00;;;;;;;;;;5103842;28;20543;-72
2023/08/01 11:56:08;;;;;;;2.10;0.80;;;;;;;;;;5102445;28;20559;-71
2023/08/01 11:58:37;;;;;;;1.60;0.87;;;;;;;;;;5104523;28;20473;-68
2023/08/01 12:01:05;;;;;;;1.20;0.93;;;;;;;;;;5113194;28;20863;-67
2023/08/01 12:03:33;;;;;;;1.87;0.93;;;;;;;;;;5113705;28;20472;-65
2023/08/01 12:06:07;;;;;;;2.20;1.17;;;;;;;;;;5113669;28;20450;-64
2023/08/01 12:08:34;;;;;;;4.90;1.37;;;;;;;;;;5113521;28;20442;-68
2023/08/01 12:11:02;;;;;;;1.20;1.10;;;;;;;;;;5113505;28;20857;-67
2023/08/01 12:13:31;;;;;;;2.70;1.20;;;;;;;;;;5113451;28;20446;-68
2023/08/01 12:15:59;;;;;;;2.00;1.40;;;;;;;;;;5108249;28;20961;-68
2023/08/01 12:18:27;;;;;;;1.40;1.30;;;;;;;;;;5103788;28;20827;-68
2023/08/01 12:20:54;;;;;;;1.40;1.30;;;;;;;;;;5102403;28;20558;-61
2023/08/01 12:23:22;;;;;;;2.00;1.90;;;;;;;;;;5102050;28;20518;-68
2023/08/01 12:25:49;;;;;;;2.77;2.17;;;;;;;;;;5103458;28;20519;-67
2023/08/01 12:28:16;;;;;;;4.93;2.00;;;;;;;;;;5102382;28;20839;-67
2023/08/01 12:30:45;;;;;;;1.83;1.67;;;;;;;;;;5101883;28;20435;-67
2023/08/01 12:33:12;;;;;;;1.97;1.77;;;;;;;;;;5092609;28;20525;-65
2023/08/01 12:35:40;;;;;;;3.83;2.60;;;;;;;;;;5108857;28;20881;-66
2023/08/01 12:38:07;;;;;;;4.23;1.53;;;;;;;;;;5112973;28;20442;-63
2023/08/01 12:40:34;;;;;;;2.47;1.67;;;;;;;;;;5104010;28;20473;-63
2023/08/01 12:43:01;;;;;;;3.30;1.77;;;;;;;;;;5103098;28;20445;-63
2023/08/01 12:45:28;;;;;;;2.30;2.07;;;;;;;;;;5102489;28;20529;-63
2023/08/01 12:47:56;;;;;;;2.93;1.70;;;;;;;;;;5103565;28;20439;-63
2023/08/01 12:50:23;;;;;;;1.57;1.47;;;;;;;;;;5102227;28;20533;-65
2023/08/01 12:52:50;;;;;;;2.30;2.03;;;;;;;;;;5102468;28;21000;-63
2023/08/01 12:55:17;;;;;;;3.50;1.93;;;;;;;;;;5103058;28;20555;-63
2023/08/01 12:57:44;;;;;;;1.90;1.80;;;;;;;;;;5101742;28;20510;-64
2023/08/01 13:00:11;;;;;;;2.40;2.23;;;;;;;;;;5102463;28;20793;-64
2023/08/01 13:02:38;;;;;;;2.70;2.50;;;;;;;;;;5103782;28;21103;-64
2023/08/01 13:05:07;;;;;;;2.30;2.10;;;;;;;;;;5096270;28;20465;-63
2023/08/01 13:07:34;;;;;;;3.90;2.17;;;;;;;;;;5096472;28;20442;-63
2023/08/01 13:10:01;;;;;;;3.03;2.73;;;;;;;;;;5096867;28;20442;-64
2023/08/01 13:12:28;;;;;;;3.13;2.57;;;;;;;;;;5096651;28;20859;-64
2023/08/01 13:14:55;;;;;;;4.90;2.17;;;;;;;;;;5096552;28;20450;-64
2023/08/01 13:17:21;;;;;;;2.43;2.23;;;;;;;;;;5096351;28;21000;-64
2023/08/01 13:19:48;;;;;;;5.30;2.50;;;;;;;;;;5096431;28;20560;-64
2023/08/01 13:22:16;;;;;;;2.43;2.17;;;;;;;;;;5096106;28;20514;-64
2023/08/01 13:24:43;;;;;;;1.90;1.80;;;;;;;;;;5096114;28;20443;-64
2023/08/01 13:27:11;;;;;;;1.93;1.70;;;;;;;;;;5105947;28;20790;-64
2023/08/01 13:29:39;;;;;;;2.10;1.90;;;;;;;;;;5105220;28;20438;-64
2023/08/01 13:32:06;;;;;;;2.97;1.93;;;;;;;;;;5105041;28;20872;-64
2023/08/01 13:34:33;;;;;;;2.53;2.00;;;;;;;;;;5105775;28;20438;-64
2023/08/01 13:37:00;;;;;;;3.00;2.70;;;;;;;;;;5106695;28;20474;-63
2023/08/01 13:39:28;;;;;;;2.37;2.17;;;;;;;;;;5105034;28;20434;-63
2023/08/01 13:41:55;;;;;;;2.87;2.57;;;;;;;;;;5107607;28;20572;-63
2023/08/01 13:44:21;;;;;;;2.40;2.20;;;;;;;;;;5105011;28;20438;-63
2023/08/01 13:46:48;;;;;;;2.30;2.10;;;;;;;;;;5106649;28;20907;-63
2023/08/01 13:49:15;;;;;;;2.53;2.07;;;;;;;;;;5105029;28;20447;-63
2023/08/01 13:51:42;;;;;;;3.47;2.20;;;;;;;;;;5104940;28;20521;-62
2023/08/01 13:54:09;;;;;;;2.23;2.03;;;;;;;;;;5106558;28;21001;-62
2023/08/01 13:56:37;;;;;;;3.97;2.40;;;;;;;;;;5104746;28;20546;-63
2023/08/01 13:59:04;;;;;;;2.47;2.27;;;;;;;;;;5099124;28;20443;-63
2023/08/01 14:01:31;;;;;;;2.60;2.40;;;;;;;;;;5095548;28;20891;-62
2023/08/01 14:03:58;;;;;;;2.77;2.50;;;;;;;;;;5103540;28;20439;-63
2023/08/01 14:06:25;;;;;;;2.50;2.30;;;;;;;;;;5105104;28;20534;-63
2023/08/01 14:08:52;;;;;;;3.50;2.40;;;;;;;;;;5104457;28;20482;-63
2023/08/01 14:11:19;;;;;;;2.87;2.10;;;;;;;;;;5105932;28;20453;-63
2023/08/01 14:13:47;;;;;;;2.73;2.50;;;;;;;;;;5100511;28;20447;-63
2023/08/01 14:16:14;;;;;;;2.50;2.17;;;;;;;;;;5094322;28;20490;-63
2023/08/01 14:18:42;;;;;;;5.57;2.80;;;;;;;;;;5095170;28;20504;-63
2023/08/01 14:21:09;;;;;;;2.83;2.60;;;;;;;;;;5095137;28;20482;-63
2023/08/01 14:23:37;;;;;;;2.37;2.17;;;;;;;;;;5095227;28;20500;-63
2023/08/01 14:26:04;;;;;;;2.27;2.10;;;;;;;;;;5095257;28;20439;-63
2023/08/01 14:28:32;;;;;;;2.83;2.43;;;;;;;;;;5095053;28;20446;-63
2023/08/01 14:31:03;;;;;;;2.70;2.27;;;;;;;;;;5094910;28;20443;-64
2023/08/01 14:33:30;;;;;;;3.23;2.60;;;;;;;;;;5094881;28;20537;-64
2023/08/01 14:35:57;;;;;;;4.13;2.60;;;;;;;;;;5095039;28;20447;-63
2023/08/01 14:38:24;;;;;;;2.43;2.10;;;;;;;;;;5095057;28;20450;-63
2023/08/01 14:40:50;;;;;;;2.63;2.43;;;;;;;;;;5094915;28;20530;-63
2023/08/01 14:43:17;;;;;;;2.63;2.43;;;;;;;;;;5094703;28;20439;-63
2023/08/01 14:45:44;;;;;;;4.00;2.63;;;;;;;;;;5094606;28;20534;-63